sensor_id;sensor_type;location;lat;lon;timestamp;temperature;humidity
27858;DHT22;16852;51.446;6.528;2022-08-19T00:01:21;22.30;99.90
27858;DHT22;16852;51.446;6.528;2022-08-19T00:03:22;22.30;99.90
27858;DHT22;16852;51.446;6.528;2022-08-19T00:05:22;22.30;99.90
27858;DHT22;16852;51.446;6.528;2022-08-19T00:07:23;22.30;99.90
27858;DHT22;16852;51.446;6.528;2022-08-19T00:09:25;22.30;99.90
27858;DHT22;16852;51.446;6.528;2022-08-19T00:11:26;22.30;99.90
27858;DHT22;16852;51.446;6.528;2022-08-19T00:13:27;22.30;99.90
27858;DHT22;16852;51.446;6.528;2022-08-19T00:15:28;22.30;99.90
27858;DHT22;16852;51.446;6.528;2022-08-19T00:17:29;22.20;99.90
27858;DHT22;16852;51.446;6.528;2022-08-19T00:19:30;22.20;99.90
27858;DHT22;16852;51.446;6.528;2022-08-19T00:21:31;22.20;99.90
27858;DHT22;16852;51.446;6.528;2022-08-19T00:23:32;22.20;99.90
27858;DHT22;16852;51.446;6.528;2022-08-19T00:25:35;22.20;99.90
27858;DHT22;16852;51.446;6.528;2022-08-19T00:27:36;22.20;99.90
27858;DHT22;16852;51.446;6.528;2022-08-19T00:29:37;22.20;99.90
27858;DHT22;16852;51.446;6.528;2022-08-19T00:31:39;22.10;99.90
27858;DHT22;16852;51.446;6.528;2022-08-19T00:33:40;22.20;99.90
27858;DHT22;16852;51.446;6.528;2022-08-19T00:35:41;22.20;99.90
27858;DHT22;16852;51.446;6.528;2022-08-19T00:37:41;22.20;99.90
27858;DHT22;16852;51.446;6.528;2022-08-19T00:39:43;22.10;99.90
27858;DHT22;16852;51.446;6.528;2022-08-19T00:41:46;22.10;99.90
27858;DHT22;16852;51.446;6.528;2022-08-19T00:44:01;22.00;99.90
27858;DHT22;16852;51.446;6.528;2022-08-19T00:46:02;22.00;99.90
27858;DHT22;16852;51.446;6.528;2022-08-19T00:48:05;21.90;99.90
27858;DHT22;16852;51.446;6.528;2022-08-19T00:50:07;21.80;99.90
27858;DHT22;16852;51.446;6.528;2022-08-19T00:52:12;21.70;99.90
27858;DHT22;16852;51.446;6.528;2022-08-19T00:54:15;21.80;99.90
27858;DHT22;16852;51.446;6.528;2022-08-19T00:56:16;21.70;99.90
27858;DHT22;16852;51.446;6.528;2022-08-19T00:58:19;21.70;99.90
27858;DHT22;16852;51.446;6.528;2022-08-19T01:00:22;21.70;99.90
27858;DHT22;16852;51.446;6.528;2022-08-19T01:02:23;21.70;99.90
27858;DHT22;16852;51.446;6.528;2022-08-19T01:04:24;21.70;99.90
27858;DHT22;16852;51.446;6.528;2022-08-19T01:06:26;21.70;99.90
27858;DHT22;16852;51.446;6.528;2022-08-19T01:08:26;21.70;99.90
27858;DHT22;16852;51.446;6.528;2022-08-19T01:10:29;21.70;99.90
27858;DHT22;16852;51.446;6.528;2022-08-19T01:12:31;21.70;99.90
27858;DHT22;16852;51.446;6.528;2022-08-19T01:14:31;21.60;99.90
27858;DHT22;16852;51.446;6.528;2022-08-19T01:16:33;21.60;99.90
27858;DHT22;16852;51.446;6.528;2022-08-19T01:18:40;21.60;99.90
27858;DHT22;16852;51.446;6.528;2022-08-19T01:20:42;21.60;99.90
27858;DHT22;16852;51.446;6.528;2022-08-19T01:22:47;21.50;99.90
27858;DHT22;16852;51.446;6.528;2022-08-19T01:24:48;21.50;99.90
27858;DHT22;16852;51.446;6.528;2022-08-19T01:26:49;21.50;99.90
27858;DHT22;16852;51.446;6.528;2022-08-19T01:28:52;21.50;99.90
27858;DHT22;16852;51.446;6.528;2022-08-19T01:30:54;21.50;99.90
27858;DHT22;16852;51.446;6.528;2022-08-19T01:32:56;21.50;99.90
27858;DHT22;16852;51.446;6.528;2022-08-19T01:34:57;21.50;99.90
27858;DHT22;16852;51.446;6.528;2022-08-19T01:36:58;21.50;99.90
27858;DHT22;16852;51.446;6.528;2022-08-19T01:38:59;21.50;99.90
27858;DHT22;16852;51.446;6.528;2022-08-19T01:41:00;21.50;99.90
27858;DHT22;16852;51.446;6.528;2022-08-19T01:43:02;21.40;99.90
27858;DHT22;16852;51.446;6.528;2022-08-19T01:45:04;21.40;99.90
27858;DHT22;16852;51.446;6.528;2022-08-19T01:47:06;21.40;99.90
27858;DHT22;16852;51.446;6.528;2022-08-19T01:49:07;21.50;99.90
27858;DHT22;16852;51.446;6.528;2022-08-19T01:51:10;21.40;99.90
27858;DHT22;16852;51.446;6.528;2022-08-19T01:53:11;21.40;99.90
27858;DHT22;16852;51.446;6.528;2022-08-19T01:55:15;21.40;99.90
27858;DHT22;16852;51.446;6.528;2022-08-19T01:57:16;21.40;99.90
27858;DHT22;16852;51.446;6.528;2022-08-19T01:59:19;21.40;99.90
27858;DHT22;16852;51.446;6.528;2022-08-19T02:01:20;21.30;99.90
27858;DHT22;16852;51.446;6.528;2022-08-19T02:03:21;21.30;99.90
27858;DHT22;16852;51.446;6.528;2022-08-19T02:05:23;21.30;99.90
27858;DHT22;16852;51.446;6.528;2022-08-19T02:07:23;21.30;99.90
27858;DHT22;16852;51.446;6.528;2022-08-19T02:09:24;21.30;99.90
27858;DHT22;16852;51.446;6.528;2022-08-19T02:11:28;21.30;99.90
27858;DHT22;16852;51.446;6.528;2022-08-19T02:13:32;21.20;99.90
27858;DHT22;16852;51.446;6.528;2022-08-19T02:15:33;21.10;99.90
27858;DHT22;16852;51.446;6.528;2022-08-19T02:17:34;21.10;99.90
27858;DHT22;16852;51.446;6.528;2022-08-19T02:19:35;21.10;99.90
27858;DHT22;16852;51.446;6.528;2022-08-19T02:21:36;21.10;99.90
27858;DHT22;16852;51.446;6.528;2022-08-19T02:23:37;21.00;99.90
27858;DHT22;16852;51.446;6.528;2022-08-19T02:25:38;21.00;99.90
27858;DHT22;16852;51.446;6.528;2022-08-19T02:27:39;21.00;99.90
27858;DHT22;16852;51.446;6.528;2022-08-19T02:29:40;21.00;99.90
27858;DHT22;16852;51.446;6.528;2022-08-19T02:31:41;20.90;99.90
27858;DHT22;16852;51.446;6.528;2022-08-19T02:33:42;20.90;99.90
27858;DHT22;16852;51.446;6.528;2022-08-19T02:35:44;20.90;99.90
27858;DHT22;16852;51.446;6.528;2022-08-19T02:37:45;20.90;99.90
27858;DHT22;16852;51.446;6.528;2022-08-19T02:40:04;20.90;99.90
27858;DHT22;16852;51.446;6.528;2022-08-19T02:42:05;20.90;99.90
27858;DHT22;16852;51.446;6.528;2022-08-19T02:44:06;20.90;99.90
27858;DHT22;16852;51.446;6.528;2022-08-19T02:46:18;20.90;99.90
27858;DHT22;16852;51.446;6.528;2022-08-19T02:48:22;20.90;99.90
27858;DHT22;16852;51.446;6.528;2022-08-19T02:50:23;20.80;99.90
27858;DHT22;16852;51.446;6.528;2022-08-19T02:52:24;20.80;99.90
27858;DHT22;16852;51.446;6.528;2022-08-19T02:54:25;20.80;99.90
27858;DHT22;16852;51.446;6.528;2022-08-19T02:56:26;20.80;99.90
27858;DHT22;16852;51.446;6.528;2022-08-19T02:58:27;20.70;99.90
27858;DHT22;16852;51.446;6.528;2022-08-19T03:00:28;20.70;99.90
27858;DHT22;16852;51.446;6.528;2022-08-19T03:02:28;20.60;99.90
27858;DHT22;16852;51.446;6.528;2022-08-19T03:04:30;20.70;99.90
27858;DHT22;16852;51.446;6.528;2022-08-19T03:06:32;20.60;99.90
27858;DHT22;16852;51.446;6.528;2022-08-19T03:08:32;20.60;99.90
27858;DHT22;16852;51.446;6.528;2022-08-19T03:10:33;20.60;99.90
27858;DHT22;16852;51.446;6.528;2022-08-19T03:12:39;20.60;99.90
27858;DHT22;16852;51.446;6.528;2022-08-19T03:14:40;20.60;99.90
27858;DHT22;16852;51.446;6.528;2022-08-19T03:16:47;20.70;99.90
27858;DHT22;16852;51.446;6.528;2022-08-19T03:18:49;20.60;99.90
27858;DHT22;16852;51.446;6.528;2022-08-19T03:20:51;20.60;99.90
27858;DHT22;16852;51.446;6.528;2022-08-19T03:22:54;20.60;99.90
27858;DHT22;16852;51.446;6.528;2022-08-19T03:24:55;20.50;99.90
27858;DHT22;16852;51.446;6.528;2022-08-19T03:26:56;20.50;99.90
27858;DHT22;16852;51.446;6.528;2022-08-19T03:29:04;20.50;99.90
27858;DHT22;16852;51.446;6.528;2022-08-19T03:31:08;20.50;99.90
27858;DHT22;16852;51.446;6.528;2022-08-19T03:33:11;20.60;99.90
27858;DHT22;16852;51.446;6.528;2022-08-19T03:35:14;20.60;99.90
27858;DHT22;16852;51.446;6.528;2022-08-19T03:37:14;20.50;99.90
27858;DHT22;16852;51.446;6.528;2022-08-19T03:39:16;20.60;99.90
27858;DHT22;16852;51.446;6.528;2022-08-19T03:41:19;20.60;99.90
27858;DHT22;16852;51.446;6.528;2022-08-19T03:43:20;20.60;99.90
27858;DHT22;16852;51.446;6.528;2022-08-19T03:45:21;20.60;99.90
27858;DHT22;16852;51.446;6.528;2022-08-19T03:47:21;20.60;99.90
27858;DHT22;16852;51.446;6.528;2022-08-19T03:49:23;20.60;99.90
27858;DHT22;16852;51.446;6.528;2022-08-19T03:51:26;20.60;99.90
27858;DHT22;16852;51.446;6.528;2022-08-19T03:53:29;20.50;99.90
27858;DHT22;16852;51.446;6.528;2022-08-19T03:55:30;20.60;99.90
27858;DHT22;16852;51.446;6.528;2022-08-19T03:57:30;20.60;99.90
27858;DHT22;16852;51.446;6.528;2022-08-19T03:59:34;20.60;99.90
27858;DHT22;16852;51.446;6.528;2022-08-19T04:01:35;20.60;99.90
27858;DHT22;16852;51.446;6.528;2022-08-19T04:03:36;20.60;99.90
27858;DHT22;16852;51.446;6.528;2022-08-19T04:05:36;20.60;99.90
27858;DHT22;16852;51.446;6.528;2022-08-19T04:07:37;20.60;99.90
27858;DHT22;16852;51.446;6.528;2022-08-19T04:09:38;20.50;99.90
27858;DHT22;16852;51.446;6.528;2022-08-19T04:11:57;20.50;99.90
27858;DHT22;16852;51.446;6.528;2022-08-19T04:13:59;20.40;99.90
27858;DHT22;16852;51.446;6.528;2022-08-19T04:16:00;20.40;99.90
27858;DHT22;16852;51.446;6.528;2022-08-19T04:18:01;20.50;99.90
27858;DHT22;16852;51.446;6.528;2022-08-19T04:20:02;20.50;99.90
27858;DHT22;16852;51.446;6.528;2022-08-19T04:22:04;20.50;99.90
27858;DHT22;16852;51.446;6.528;2022-08-19T04:24:05;20.50;99.90
27858;DHT22;16852;51.446;6.528;2022-08-19T04:26:06;20.50;99.90
27858;DHT22;16852;51.446;6.528;2022-08-19T04:28:07;20.50;99.90
27858;DHT22;16852;51.446;6.528;2022-08-19T04:30:09;20.50;99.90
27858;DHT22;16852;51.446;6.528;2022-08-19T04:32:10;20.50;99.90
27858;DHT22;16852;51.446;6.528;2022-08-19T04:34:13;20.60;99.90
27858;DHT22;16852;51.446;6.528;2022-08-19T04:36:19;20.50;99.90
27858;DHT22;16852;51.446;6.528;2022-08-19T04:38:21;20.40;99.90
27858;DHT22;16852;51.446;6.528;2022-08-19T04:40:25;20.40;99.90
27858;DHT22;16852;51.446;6.528;2022-08-19T04:42:44;20.40;99.90
27858;DHT22;16852;51.446;6.528;2022-08-19T04:44:44;20.40;99.90
27858;DHT22;16852;51.446;6.528;2022-08-19T04:46:46;20.30;99.90
27858;DHT22;16852;51.446;6.528;2022-08-19T04:48:48;20.30;99.90
27858;DHT22;16852;51.446;6.528;2022-08-19T04:50:48;20.30;99.90
27858;DHT22;16852;51.446;6.528;2022-08-19T04:52:50;20.30;99.90
27858;DHT22;16852;51.446;6.528;2022-08-19T04:54:51;20.20;99.90
27858;DHT22;16852;51.446;6.528;2022-08-19T04:56:52;20.30;99.90
27858;DHT22;16852;51.446;6.528;2022-08-19T04:58:54;20.30;99.90
27858;DHT22;16852;51.446;6.528;2022-08-19T05:00:55;20.30;99.90
27858;DHT22;16852;51.446;6.528;2022-08-19T05:02:56;20.30;99.90
27858;DHT22;16852;51.446;6.528;2022-08-19T05:04:58;20.30;99.90
27858;DHT22;16852;51.446;6.528;2022-08-19T05:07:02;20.30;99.90
27858;DHT22;16852;51.446;6.528;2022-08-19T05:09:04;20.40;99.90
27858;DHT22;16852;51.446;6.528;2022-08-19T05:11:27;20.40;99.90
27858;DHT22;16852;51.446;6.528;2022-08-19T05:13:28;20.40;99.90
27858;DHT22;16852;51.446;6.528;2022-08-19T05:15:28;20.40;99.90
27858;DHT22;16852;51.446;6.528;2022-08-19T05:17:29;20.40;99.90
27858;DHT22;16852;51.446;6.528;2022-08-19T05:19:30;20.50;99.90
27858;DHT22;16852;51.446;6.528;2022-08-19T05:21:49;20.50;99.90
27858;DHT22;16852;51.446;6.528;2022-08-19T05:24:09;20.50;99.90
27858;DHT22;16852;51.446;6.528;2022-08-19T05:26:09;20.60;99.90
27858;DHT22;16852;51.446;6.528;2022-08-19T05:28:11;20.60;99.90
27858;DHT22;16852;51.446;6.528;2022-08-19T05:30:12;20.60;99.90
27858;DHT22;16852;51.446;6.528;2022-08-19T05:32:13;20.70;99.90
27858;DHT22;16852;51.446;6.528;2022-08-19T05:34:13;20.70;99.90
27858;DHT22;16852;51.446;6.528;2022-08-19T05:36:14;20.70;99.90
27858;DHT22;16852;51.446;6.528;2022-08-19T05:38:16;20.80;99.90
27858;DHT22;16852;51.446;6.528;2022-08-19T05:40:17;20.80;99.90
27858;DHT22;16852;51.446;6.528;2022-08-19T05:42:17;20.80;99.90
27858;DHT22;16852;51.446;6.528;2022-08-19T05:44:20;20.90;99.90
27858;DHT22;16852;51.446;6.528;2022-08-19T05:46:21;20.90;99.90
27858;DHT22;16852;51.446;6.528;2022-08-19T05:48:22;20.90;99.90
27858;DHT22;16852;51.446;6.528;2022-08-19T05:50:23;21.00;99.90
27858;DHT22;16852;51.446;6.528;2022-08-19T05:52:24;21.00;99.90
27858;DHT22;16852;51.446;6.528;2022-08-19T05:54:25;21.00;99.90
27858;DHT22;16852;51.446;6.528;2022-08-19T05:56:26;21.00;99.90
27858;DHT22;16852;51.446;6.528;2022-08-19T05:58:26;21.00;99.90
27858;DHT22;16852;51.446;6.528;2022-08-19T06:00:27;21.10;99.90
27858;DHT22;16852;51.446;6.528;2022-08-19T06:02:28;21.10;99.90
27858;DHT22;16852;51.446;6.528;2022-08-19T06:04:30;21.20;99.90
27858;DHT22;16852;51.446;6.528;2022-08-19T06:06:31;21.20;99.90
27858;DHT22;16852;51.446;6.528;2022-08-19T06:08:35;21.20;99.90
27858;DHT22;16852;51.446;6.528;2022-08-19T06:10:36;21.20;99.90
27858;DHT22;16852;51.446;6.528;2022-08-19T06:12:37;21.30;99.90
27858;DHT22;16852;51.446;6.528;2022-08-19T06:14:38;21.30;99.90
27858;DHT22;16852;51.446;6.528;2022-08-19T06:16:40;21.30;99.90
27858;DHT22;16852;51.446;6.528;2022-08-19T06:18:40;21.30;99.90
27858;DHT22;16852;51.446;6.528;2022-08-19T06:20:41;21.40;99.90
27858;DHT22;16852;51.446;6.528;2022-08-19T06:22:44;21.40;99.90
27858;DHT22;16852;51.446;6.528;2022-08-19T06:24:45;21.40;99.90
27858;DHT22;16852;51.446;6.528;2022-08-19T06:26:48;21.40;99.90
27858;DHT22;16852;51.446;6.528;2022-08-19T06:28:48;21.50;99.90
27858;DHT22;16852;51.446;6.528;2022-08-19T06:30:49;21.50;99.90
27858;DHT22;16852;51.446;6.528;2022-08-19T06:32:51;21.50;99.90
27858;DHT22;16852;51.446;6.528;2022-08-19T06:34:52;21.50;99.90
27858;DHT22;16852;51.446;6.528;2022-08-19T06:36:53;21.50;99.90
27858;DHT22;16852;51.446;6.528;2022-08-19T06:38:54;21.50;99.90
27858;DHT22;16852;51.446;6.528;2022-08-19T06:41:05;21.50;99.90
27858;DHT22;16852;51.446;6.528;2022-08-19T06:43:05;21.50;99.90
27858;DHT22;16852;51.446;6.528;2022-08-19T06:45:06;21.50;99.90
27858;DHT22;16852;51.446;6.528;2022-08-19T06:47:11;21.60;99.90
27858;DHT22;16852;51.446;6.528;2022-08-19T06:49:12;21.70;99.90
27858;DHT22;16852;51.446;6.528;2022-08-19T06:51:16;22.00;99.90
27858;DHT22;16852;51.446;6.528;2022-08-19T06:53:18;22.20;99.90
27858;DHT22;16852;51.446;6.528;2022-08-19T06:55:19;22.40;99.90
27858;DHT22;16852;51.446;6.528;2022-08-19T06:57:20;22.70;99.90
27858;DHT22;16852;51.446;6.528;2022-08-19T06:59:24;23.00;99.90
27858;DHT22;16852;51.446;6.528;2022-08-19T07:01:27;23.30;99.90
27858;DHT22;16852;51.446;6.528;2022-08-19T07:03:33;23.70;99.90
27858;DHT22;16852;51.446;6.528;2022-08-19T07:05:40;23.90;99.90
27858;DHT22;16852;51.446;6.528;2022-08-19T07:07:40;24.10;99.90
27858;DHT22;16852;51.446;6.528;2022-08-19T07:09:44;24.10;99.90
27858;DHT22;16852;51.446;6.528;2022-08-19T07:11:47;24.40;99.90
27858;DHT22;16852;51.446;6.528;2022-08-19T07:13:48;24.70;99.90
27858;DHT22;16852;51.446;6.528;2022-08-19T07:15:49;24.80;99.90
27858;DHT22;16852;51.446;6.528;2022-08-19T07:17:50;25.00;99.90
27858;DHT22;16852;51.446;6.528;2022-08-19T07:19:52;25.10;99.90
27858;DHT22;16852;51.446;6.528;2022-08-19T07:21:53;25.20;99.90
27858;DHT22;16852;51.446;6.528;2022-08-19T07:23:56;25.20;99.90
27858;DHT22;16852;51.446;6.528;2022-08-19T07:25:57;25.20;99.90
27858;DHT22;16852;51.446;6.528;2022-08-19T07:27:57;25.20;99.90
27858;DHT22;16852;51.446;6.528;2022-08-19T07:29:58;25.20;99.90
27858;DHT22;16852;51.446;6.528;2022-08-19T07:32:00;25.10;99.90
27858;DHT22;16852;51.446;6.528;2022-08-19T07:34:00;25.10;99.90
27858;DHT22;16852;51.446;6.528;2022-08-19T07:36:05;25.10;99.90
27858;DHT22;16852;51.446;6.528;2022-08-19T07:38:05;25.10;99.90
27858;DHT22;16852;51.446;6.528;2022-08-19T07:40:07;25.10;99.90
27858;DHT22;16852;51.446;6.528;2022-08-19T07:42:09;25.10;99.90
27858;DHT22;16852;51.446;6.528;2022-08-19T07:44:10;25.20;99.90
27858;DHT22;16852;51.446;6.528;2022-08-19T07:46:12;25.10;99.90
27858;DHT22;16852;51.446;6.528;2022-08-19T07:48:13;25.10;99.90
27858;DHT22;16852;51.446;6.528;2022-08-19T07:50:15;25.10;99.90
27858;DHT22;16852;51.446;6.528;2022-08-19T07:52:16;25.10;99.90
27858;DHT22;16852;51.446;6.528;2022-08-19T07:54:18;25.10;99.90
27858;DHT22;16852;51.446;6.528;2022-08-19T07:56:20;24.90;99.90
27858;DHT22;16852;51.446;6.528;2022-08-19T07:58:22;24.90;99.90
27858;DHT22;16852;51.446;6.528;2022-08-19T08:00:23;24.90;99.90
27858;DHT22;16852;51.446;6.528;2022-08-19T08:02:24;24.90;99.90
27858;DHT22;16852;51.446;6.528;2022-08-19T08:04:24;24.90;99.90
27858;DHT22;16852;51.446;6.528;2022-08-19T08:06:52;24.90;99.90
27858;DHT22;16852;51.446;6.528;2022-08-19T08:09:12;24.90;99.90
27858;DHT22;16852;51.446;6.528;2022-08-19T08:11:21;24.90;99.90
27858;DHT22;16852;51.446;6.528;2022-08-19T08:13:21;24.90;99.90
27858;DHT22;16852;51.446;6.528;2022-08-19T08:15:22;24.90;99.90
27858;DHT22;16852;51.446;6.528;2022-08-19T08:17:25;25.00;99.90
27858;DHT22;16852;51.446;6.528;2022-08-19T08:19:27;25.10;99.90
27858;DHT22;16852;51.446;6.528;2022-08-19T08:21:28;25.00;99.90
27858;DHT22;16852;51.446;6.528;2022-08-19T08:23:28;25.10;99.90
27858;DHT22;16852;51.446;6.528;2022-08-19T08:25:30;25.10;99.90
27858;DHT22;16852;51.446;6.528;2022-08-19T08:27:31;25.20;99.90
27858;DHT22;16852;51.446;6.528;2022-08-19T08:29:35;25.20;99.90
27858;DHT22;16852;51.446;6.528;2022-08-19T08:31:36;25.30;99.90
27858;DHT22;16852;51.446;6.528;2022-08-19T08:33:36;25.40;99.90
27858;DHT22;16852;51.446;6.528;2022-08-19T08:35:38;25.40;99.90
27858;DHT22;16852;51.446;6.528;2022-08-19T08:37:42;25.50;99.90
27858;DHT22;16852;51.446;6.528;2022-08-19T08:39:43;25.60;99.90
27858;DHT22;16852;51.446;6.528;2022-08-19T08:41:56;25.60;99.90
27858;DHT22;16852;51.446;6.528;2022-08-19T08:44:03;25.60;99.90
27858;DHT22;16852;51.446;6.528;2022-08-19T08:46:08;25.70;99.90
27858;DHT22;16852;51.446;6.528;2022-08-19T08:48:24;25.70;99.90
27858;DHT22;16852;51.446;6.528;2022-08-19T08:50:35;25.90;99.90
27858;DHT22;16852;51.446;6.528;2022-08-19T08:52:45;25.90;99.90
27858;DHT22;16852;51.446;6.528;2022-08-19T08:54:48;26.00;99.90
27858;DHT22;16852;51.446;6.528;2022-08-19T08:56:51;26.00;99.90
27858;DHT22;16852;51.446;6.528;2022-08-19T08:59:06;26.10;99.90
27858;DHT22;16852;51.446;6.528;2022-08-19T09:01:12;26.10;99.90
27858;DHT22;16852;51.446;6.528;2022-08-19T09:05:21;26.10;99.90
27858;DHT22;16852;51.446;6.528;2022-08-19T09:07:40;26.20;99.90
27858;DHT22;16852;51.446;6.528;2022-08-19T09:09:46;26.30;99.90
27858;DHT22;16852;51.446;6.528;2022-08-19T09:16:42;26.20;99.90
27858;DHT22;16852;51.446;6.528;2022-08-19T09:18:45;26.20;99.70
27858;DHT22;16852;51.446;6.528;2022-08-19T09:20:47;26.20;99.90
27858;DHT22;16852;51.446;6.528;2022-08-19T09:22:48;26.10;99.30
27858;DHT22;16852;51.446;6.528;2022-08-19T09:24:50;26.10;99.40
27858;DHT22;16852;51.446;6.528;2022-08-19T09:26:52;26.10;99.70
27858;DHT22;16852;51.446;6.528;2022-08-19T09:28:53;26.20;99.80
27858;DHT22;16852;51.446;6.528;2022-08-19T09:30:54;26.10;99.90
27858;DHT22;16852;51.446;6.528;2022-08-19T09:32:55;26.20;99.90
27858;DHT22;16852;51.446;6.528;2022-08-19T09:34:56;26.20;99.80
27858;DHT22;16852;51.446;6.528;2022-08-19T09:36:58;26.30;99.90
27858;DHT22;16852;51.446;6.528;2022-08-19T09:39:00;26.30;99.90
27858;DHT22;16852;51.446;6.528;2022-08-19T09:41:06;26.30;99.40
27858;DHT22;16852;51.446;6.528;2022-08-19T09:43:06;26.40;99.90
27858;DHT22;16852;51.446;6.528;2022-08-19T09:45:08;26.50;99.50
27858;DHT22;16852;51.446;6.528;2022-08-19T09:47:10;26.50;99.20
27858;DHT22;16852;51.446;6.528;2022-08-19T09:49:11;26.50;98.50
27858;DHT22;16852;51.446;6.528;2022-08-19T09:51:13;26.40;98.30
27858;DHT22;16852;51.446;6.528;2022-08-19T09:53:18;26.50;98.70
27858;DHT22;16852;51.446;6.528;2022-08-19T09:55:19;26.60;98.60
27858;DHT22;16852;51.446;6.528;2022-08-19T09:57:19;26.60;98.60
27858;DHT22;16852;51.446;6.528;2022-08-19T09:59:20;26.60;98.30
27858;DHT22;16852;51.446;6.528;2022-08-19T10:01:24;26.60;97.70
27858;DHT22;16852;51.446;6.528;2022-08-19T10:03:26;26.60;97.50
27858;DHT22;16852;51.446;6.528;2022-08-19T10:05:27;26.60;97.20
27858;DHT22;16852;51.446;6.528;2022-08-19T10:07:46;26.60;97.00
27858;DHT22;16852;51.446;6.528;2022-08-19T10:09:47;26.70;97.50
27858;DHT22;16852;51.446;6.528;2022-08-19T10:11:47;26.80;97.20
27858;DHT22;16852;51.446;6.528;2022-08-19T10:13:50;26.80;98.00
27858;DHT22;16852;51.446;6.528;2022-08-19T10:15:51;26.90;97.10
27858;DHT22;16852;51.446;6.528;2022-08-19T10:17:52;26.90;96.90
27858;DHT22;16852;51.446;6.528;2022-08-19T10:19:53;26.90;96.00
27858;DHT22;16852;51.446;6.528;2022-08-19T10:21:54;26.90;95.80
27858;DHT22;16852;51.446;6.528;2022-08-19T10:23:57;26.90;96.00
27858;DHT22;16852;51.446;6.528;2022-08-19T10:26:00;26.90;96.20
27858;DHT22;16852;51.446;6.528;2022-08-19T10:28:01;27.00;96.90
27858;DHT22;16852;51.446;6.528;2022-08-19T10:30:03;27.00;96.30
27858;DHT22;16852;51.446;6.528;2022-08-19T10:32:06;26.90;96.30
27858;DHT22;16852;51.446;6.528;2022-08-19T10:34:08;26.90;96.20
27858;DHT22;16852;51.446;6.528;2022-08-19T10:36:15;26.90;96.70
27858;DHT22;16852;51.446;6.528;2022-08-19T10:38:16;26.90;96.80
27858;DHT22;16852;51.446;6.528;2022-08-19T10:40:17;27.00;97.00
27858;DHT22;16852;51.446;6.528;2022-08-19T10:42:18;27.00;96.10
27858;DHT22;16852;51.446;6.528;2022-08-19T10:44:19;27.10;96.20
27858;DHT22;16852;51.446;6.528;2022-08-19T10:46:22;27.00;95.40
27858;DHT22;16852;51.446;6.528;2022-08-19T10:48:23;26.90;95.60
27858;DHT22;16852;51.446;6.528;2022-08-19T10:50:24;26.90;95.80
27858;DHT22;16852;51.446;6.528;2022-08-19T10:52:46;26.90;96.20
27858;DHT22;16852;51.446;6.528;2022-08-19T10:54:47;26.90;95.70
27858;DHT22;16852;51.446;6.528;2022-08-19T10:57:06;27.00;95.90
27858;DHT22;16852;51.446;6.528;2022-08-19T10:59:07;27.00;95.00
27858;DHT22;16852;51.446;6.528;2022-08-19T11:01:07;27.00;95.40
27858;DHT22;16852;51.446;6.528;2022-08-19T11:03:08;27.00;95.10
27858;DHT22;16852;51.446;6.528;2022-08-19T11:05:09;27.00;94.80
27858;DHT22;16852;51.446;6.528;2022-08-19T11:07:12;27.10;95.80
27858;DHT22;16852;51.446;6.528;2022-08-19T11:09:18;27.20;95.00
27858;DHT22;16852;51.446;6.528;2022-08-19T11:11:20;27.30;94.60
27858;DHT22;16852;51.446;6.528;2022-08-19T11:13:21;27.30;93.80
27858;DHT22;16852;51.446;6.528;2022-08-19T11:15:23;27.30;94.90
27858;DHT22;16852;51.446;6.528;2022-08-19T11:17:24;27.30;94.30
27858;DHT22;16852;51.446;6.528;2022-08-19T11:19:25;27.30;94.40
27858;DHT22;16852;51.446;6.528;2022-08-19T11:21:31;27.10;94.00
27858;DHT22;16852;51.446;6.528;2022-08-19T11:23:32;27.20;94.00
27858;DHT22;16852;51.446;6.528;2022-08-19T11:25:33;27.20;94.10
27858;DHT22;16852;51.446;6.528;2022-08-19T11:27:38;27.30;94.90
27858;DHT22;16852;51.446;6.528;2022-08-19T11:29:39;27.30;93.20
27858;DHT22;16852;51.446;6.528;2022-08-19T11:31:43;27.40;94.00
27858;DHT22;16852;51.446;6.528;2022-08-19T11:33:45;27.40;93.90
27858;DHT22;16852;51.446;6.528;2022-08-19T11:35:46;27.30;93.70
27858;DHT22;16852;51.446;6.528;2022-08-19T11:37:46;27.30;92.50
27858;DHT22;16852;51.446;6.528;2022-08-19T11:39:47;27.30;92.20
27858;DHT22;16852;51.446;6.528;2022-08-19T11:41:48;27.40;93.00
27858;DHT22;16852;51.446;6.528;2022-08-19T11:43:50;27.40;92.20
27858;DHT22;16852;51.446;6.528;2022-08-19T11:45:51;27.50;92.60
27858;DHT22;16852;51.446;6.528;2022-08-19T11:47:52;27.50;92.00
27858;DHT22;16852;51.446;6.528;2022-08-19T11:49:53;27.50;93.20
27858;DHT22;16852;51.446;6.528;2022-08-19T11:51:53;27.60;91.70
27858;DHT22;16852;51.446;6.528;2022-08-19T11:53:56;27.60;92.90
27858;DHT22;16852;51.446;6.528;2022-08-19T11:55:57;27.60;91.30
27858;DHT22;16852;51.446;6.528;2022-08-19T11:57:57;27.60;91.20
27858;DHT22;16852;51.446;6.528;2022-08-19T11:59:58;27.70;90.80
27858;DHT22;16852;51.446;6.528;2022-08-19T12:01:59;27.80;90.90
27858;DHT22;16852;51.446;6.528;2022-08-19T12:03:59;27.80;90.70
27858;DHT22;16852;51.446;6.528;2022-08-19T12:06:08;27.90;91.70
27858;DHT22;16852;51.446;6.528;2022-08-19T12:08:09;27.80;90.90
27858;DHT22;16852;51.446;6.528;2022-08-19T12:10:11;27.90;91.40
27858;DHT22;16852;51.446;6.528;2022-08-19T12:12:12;27.90;88.40
27858;DHT22;16852;51.446;6.528;2022-08-19T12:14:13;27.90;89.20
27858;DHT22;16852;51.446;6.528;2022-08-19T12:16:18;27.90;89.40
27858;DHT22;16852;51.446;6.528;2022-08-19T12:18:18;27.80;89.50
27858;DHT22;16852;51.446;6.528;2022-08-19T12:20:19;27.80;90.30
27858;DHT22;16852;51.446;6.528;2022-08-19T12:22:20;27.90;89.10
27858;DHT22;16852;51.446;6.528;2022-08-19T12:24:21;27.90;87.40
27858;DHT22;16852;51.446;6.528;2022-08-19T12:26:24;27.90;88.50
27858;DHT22;16852;51.446;6.528;2022-08-19T12:28:25;28.00;90.40
27858;DHT22;16852;51.446;6.528;2022-08-19T12:30:26;28.00;90.20
27858;DHT22;16852;51.446;6.528;2022-08-19T12:32:27;28.00;88.90
27858;DHT22;16852;51.446;6.528;2022-08-19T12:34:32;28.10;90.10
27858;DHT22;16852;51.446;6.528;2022-08-19T12:36:33;28.10;87.90
27858;DHT22;16852;51.446;6.528;2022-08-19T12:38:34;28.20;87.60
27858;DHT22;16852;51.446;6.528;2022-08-19T12:40:34;28.20;89.90
27858;DHT22;16852;51.446;6.528;2022-08-19T12:42:35;28.20;90.30
27858;DHT22;16852;51.446;6.528;2022-08-19T12:44:37;28.20;88.70
27858;DHT22;16852;51.446;6.528;2022-08-19T12:46:39;28.20;87.20
27858;DHT22;16852;51.446;6.528;2022-08-19T12:48:40;28.20;89.70
27858;DHT22;16852;51.446;6.528;2022-08-19T12:50:45;28.20;87.50
27858;DHT22;16852;51.446;6.528;2022-08-19T12:52:47;28.30;86.00
27858;DHT22;16852;51.446;6.528;2022-08-19T12:54:48;28.30;88.80
27858;DHT22;16852;51.446;6.528;2022-08-19T12:56:49;28.30;87.40
27858;DHT22;16852;51.446;6.528;2022-08-19T12:58:50;28.30;86.70
27858;DHT22;16852;51.446;6.528;2022-08-19T13:00:51;28.30;90.00